createdAt,value
2022-07-28T00:01:10.159Z,101928.00
2022-07-28T00:03:36.698Z,101922.00
2022-07-28T00:06:03.171Z,101917.00
2022-07-28T00:08:29.684Z,101923.00
2022-07-28T00:10:56.163Z,101922.00
2022-07-28T00:13:22.606Z,101928.00
2022-07-28T00:15:49.326Z,101924.00
2022-07-28T00:18:15.809Z,101918.00
2022-07-28T00:20:42.245Z,101918.00
2022-07-28T00:23:08.783Z,101921.00
2022-07-28T00:25:35.239Z,101913.00
2022-07-28T00:28:01.656Z,101916.00
2022-07-28T00:30:28.193Z,101911.00
2022-07-28T00:32:54.728Z,101912.00
2022-07-28T00:35:30.957Z,101902.00
2022-07-28T00:37:58.289Z,101891.00
2022-07-28T00:40:44.745Z,101897.00
2022-07-28T00:43:11.236Z,101899.00
2022-07-28T00:45:37.715Z,101894.00
2022-07-28T00:48:04.412Z,101888.00
2022-07-28T00:50:30.968Z,101883.00
2022-07-28T00:52:57.768Z,101889.00
2022-07-28T00:55:24.386Z,101890.00
2022-07-28T00:57:50.884Z,101885.00
2022-07-28T01:00:17.456Z,101894.00
2022-07-28T01:02:46.698Z,101893.00
2022-07-28T01:05:14.894Z,101891.00
2022-07-28T01:07:52.620Z,101893.00
2022-07-28T01:10:28.188Z,101887.00
2022-07-28T01:13:09.874Z,101886.00
2022-07-28T01:15:42.601Z,101877.00
2022-07-28T01:18:13.520Z,101872.00
2022-07-28T01:20:42.335Z,101876.00
2022-07-28T01:23:11.526Z,101882.00
2022-07-28T01:25:53.158Z,101888.00
2022-07-28T01:28:26.568Z,101891.00
2022-07-28T01:30:54.652Z,101888.00
2022-07-28T01:33:31.337Z,101890.00
2022-07-28T01:36:08.762Z,101879.00
2022-07-28T01:38:35.928Z,101872.00
2022-07-28T01:41:03.896Z,101880.00
2022-07-28T01:43:33.229Z,101873.00
2022-07-28T01:46:01.360Z,101878.00
2022-07-28T01:48:28.166Z,101865.00
2022-07-28T01:50:56.142Z,101861.00
2022-07-28T01:53:23.153Z,101859.00
2022-07-28T01:55:50.402Z,101862.00
2022-07-28T01:58:18.697Z,101860.00
2022-07-28T02:00:48.022Z,101860.00
2022-07-28T02:03:14.888Z,101863.00
2022-07-28T02:05:42.465Z,101860.00
2022-07-28T02:08:09.729Z,101856.00
2022-07-28T02:10:37.132Z,101854.00
2022-07-28T02:13:04.027Z,101851.00
2022-07-28T02:15:31.315Z,101849.00
2022-07-28T02:17:58.991Z,101846.00
2022-07-28T02:20:25.902Z,101849.00
2022-07-28T02:22:53.109Z,101838.00
2022-07-28T02:25:20.743Z,101838.00
2022-07-28T02:28:07.426Z,101837.00
2022-07-28T02:30:35.940Z,101837.00
2022-07-28T02:33:05.419Z,101833.00
2022-07-28T02:35:38.020Z,101830.00
2022-07-28T02:38:07.465Z,101831.00
2022-07-28T02:40:35.581Z,101828.00
2022-07-28T02:43:03.197Z,101830.00
2022-07-28T02:45:31.707Z,101831.00
2022-07-28T02:48:00.301Z,101829.00
2022-07-28T02:50:28.635Z,101837.00
2022-07-28T02:52:56.498Z,101832.00
2022-07-28T02:55:23.364Z,101830.00
2022-07-28T02:57:56.232Z,101827.00
2022-07-28T03:00:23.491Z,101829.00
2022-07-28T03:02:50.545Z,101838.00
2022-07-28T03:05:17.646Z,101830.00
2022-07-28T03:07:50.928Z,101836.00
2022-07-28T03:10:33.427Z,101838.00
2022-07-28T03:13:01.560Z,101832.00
2022-07-28T03:15:35.944Z,101826.00
2022-07-28T03:18:03.587Z,101834.00
2022-07-28T03:20:30.352Z,101831.00
2022-07-28T03:22:58.419Z,101830.00
2022-07-28T03:25:47.981Z,101831.00
2022-07-28T03:28:19.449Z,101830.00
2022-07-28T03:30:50.551Z,101829.00
2022-07-28T03:33:17.128Z,101828.00
2022-07-28T03:35:45.786Z,101835.00
2022-07-28T03:38:13.914Z,101833.00
2022-07-28T03:40:42.333Z,101834.00
2022-07-28T03:43:14.055Z,101823.00
2022-07-28T03:45:41.490Z,101829.00
2022-07-28T03:48:15.059Z,101835.00
2022-07-28T03:50:41.844Z,101829.00
2022-07-28T03:53:14.377Z,101825.00
2022-07-28T03:55:40.812Z,101829.00
2022-07-28T03:58:07.289Z,101828.00
2022-07-28T04:00:34.197Z,101825.00
2022-07-28T04:03:00.626Z,101834.00
2022-07-28T04:05:27.117Z,101831.00
2022-07-28T04:07:53.617Z,101834.00
2022-07-28T04:10:20.156Z,101831.00
2022-07-28T04:12:47.270Z,101829.00
2022-07-28T04:15:16.944Z,101826.00
2022-07-28T04:17:43.876Z,101825.00
2022-07-28T04:20:11.019Z,101827.00
2022-07-28T04:22:38.110Z,101815.00
2022-07-28T04:25:05.210Z,101813.00
2022-07-28T04:27:31.726Z,101812.00
2022-07-28T04:29:58.156Z,101809.00
2022-07-28T04:32:24.603Z,101815.00
2022-07-28T04:34:51.051Z,101817.00
2022-07-28T04:37:17.595Z,101822.00
2022-07-28T04:39:44.216Z,101817.00
2022-07-28T04:42:11.546Z,101817.00
2022-07-28T04:44:42.380Z,101821.00
2022-07-28T04:47:09.370Z,101816.00
2022-07-28T04:49:35.831Z,101822.00
2022-07-28T04:52:03.472Z,101823.00
2022-07-28T04:54:30.026Z,101833.00
2022-07-28T04:56:56.467Z,101823.00
2022-07-28T04:59:22.994Z,101822.00
2022-07-28T05:01:49.516Z,101813.00
2022-07-28T05:04:16.581Z,101818.00
2022-07-28T05:06:43.415Z,101824.00
2022-07-28T05:09:10.184Z,101817.00
2022-07-28T05:11:36.729Z,101818.00
2022-07-28T05:14:03.401Z,101821.00
2022-07-28T05:16:29.989Z,101828.00
2022-07-28T05:18:56.481Z,101826.00
2022-07-28T05:21:22.986Z,101823.00
2022-07-28T05:23:49.434Z,101824.00
2022-07-28T05:26:15.956Z,101823.00
2022-07-28T05:28:42.471Z,101826.00
2022-07-28T05:31:08.981Z,101819.00
2022-07-28T05:33:35.589Z,101822.00
2022-07-28T05:36:02.163Z,101816.00
2022-07-28T05:38:29.191Z,101825.00
2022-07-28T05:40:55.686Z,101823.00
2022-07-28T05:43:22.472Z,101820.00
2022-07-28T05:45:49.285Z,101810.00
2022-07-28T05:48:19.165Z,101821.00
2022-07-28T05:50:46.024Z,101815.00
2022-07-28T05:53:12.569Z,101816.00
2022-07-28T05:56:00.813Z,101810.00
2022-07-28T05:58:26.062Z,101808.00
2022-07-28T06:00:52.854Z,101812.00
2022-07-28T06:03:19.341Z,101811.00
2022-07-28T06:06:14.204Z,101818.00
2022-07-28T06:08:32.830Z,101815.00
2022-07-28T06:10:59.401Z,101820.00
2022-07-28T06:13:25.851Z,101817.00
2022-07-28T06:15:52.839Z,101819.00
2022-07-28T06:18:20.161Z,101817.00
2022-07-28T06:20:47.326Z,101827.00
2022-07-28T06:23:17.010Z,101823.00
2022-07-28T06:25:43.456Z,101826.00
2022-07-28T06:28:09.914Z,101823.00
2022-07-28T06:30:36.427Z,101827.00
2022-07-28T06:33:05.544Z,101823.00
2022-07-28T06:35:33.131Z,101826.00
2022-07-28T06:38:14.208Z,101817.00
2022-07-28T06:40:42.317Z,101822.00
2022-07-28T06:43:08.756Z,101816.00
2022-07-28T06:45:35.291Z,101812.00
2022-07-28T06:48:01.735Z,101811.00
2022-07-28T06:50:28.223Z,101806.00
2022-07-28T06:52:55.480Z,101810.00
2022-07-28T06:55:22.036Z,101811.00
2022-07-28T06:57:48.778Z,101801.00
2022-07-28T07:00:15.955Z,101797.00
2022-07-28T07:02:43.116Z,101800.00
2022-07-28T07:05:10.616Z,101802.00
2022-07-28T07:07:42.504Z,101802.00
2022-07-28T07:10:09.892Z,101802.00
2022-07-28T07:12:36.398Z,101809.00
2022-07-28T07:15:04.291Z,101803.00
2022-07-28T07:17:30.798Z,101801.00
2022-07-28T07:19:57.420Z,101799.00
2022-07-28T07:22:23.928Z,101807.00
2022-07-28T07:24:53.581Z,101797.00
2022-07-28T07:27:22.966Z,101802.00
2022-07-28T07:29:49.398Z,101802.00
2022-07-28T07:32:15.856Z,101815.00
2022-07-28T07:34:42.332Z,101800.00
2022-07-28T07:37:13.576Z,101805.00
2022-07-28T07:39:40.255Z,101801.00
2022-07-28T07:42:06.901Z,101808.00
2022-07-28T07:44:33.407Z,101816.00
2022-07-28T07:46:59.945Z,101810.00
2022-07-28T07:49:26.751Z,101818.00
2022-07-28T07:52:11.390Z,101807.00
2022-07-28T07:54:37.889Z,101810.00
2022-07-28T07:57:04.367Z,101800.00
2022-07-28T07:59:30.940Z,101804.00
2022-07-28T08:01:57.571Z,101800.00
2022-07-28T08:04:25.308Z,101794.00
2022-07-28T08:06:52.413Z,101798.00
2022-07-28T08:09:19.177Z,101799.00
2022-07-28T08:11:45.701Z,101808.00
2022-07-28T08:14:12.787Z,101796.00
2022-07-28T08:16:39.586Z,101796.00
2022-07-28T08:19:06.329Z,101797.00
2022-07-28T08:21:35.383Z,101795.00
2022-07-28T08:24:01.873Z,101787.00
2022-07-28T08:26:31.080Z,101785.00
2022-07-28T08:28:57.517Z,101791.00
2022-07-28T08:31:24.018Z,101785.00
2022-07-28T08:33:54.099Z,101783.00
2022-07-28T08:36:21.320Z,101789.00
2022-07-28T08:38:47.850Z,101787.00
2022-07-28T08:41:18.127Z,101777.00
2022-07-28T08:43:45.333Z,101780.00
2022-07-28T08:46:12.033Z,101779.00
2022-07-28T08:48:39.019Z,101772.00
2022-07-28T08:51:09.525Z,101775.00
2022-07-28T08:53:38.205Z,101776.00
2022-07-28T08:56:05.776Z,101776.00
2022-07-28T08:58:33.653Z,101772.00
2022-07-28T09:01:00.463Z,101780.00
2022-07-28T09:03:27.565Z,101769.00
2022-07-28T09:05:54.725Z,101777.00
2022-07-28T09:08:21.428Z,101775.00
2022-07-28T09:10:48.490Z,101776.00
2022-07-28T09:13:15.558Z,101770.00
2022-07-28T09:15:42.269Z,101771.00
2022-07-28T09:18:08.855Z,101772.00
2022-07-28T09:20:38.889Z,101774.00
2022-07-28T09:23:42.706Z,101765.00
2022-07-28T09:26:10.228Z,101770.00
2022-07-28T09:28:57.365Z,101771.00
2022-07-28T09:31:24.887Z,101767.00
2022-07-28T09:34:02.365Z,101771.00
2022-07-28T09:36:29.961Z,101761.00
2022-07-28T09:38:56.880Z,101766.00
2022-07-28T09:41:23.955Z,101754.00
2022-07-28T09:43:54.825Z,101751.00
2022-07-28T09:46:23.573Z,101750.00
2022-07-28T09:48:50.469Z,101747.00
2022-07-28T09:51:19.325Z,101744.00
2022-07-28T09:53:45.913Z,101746.00
2022-07-28T09:56:13.013Z,101745.00
2022-07-28T09:58:40.134Z,101744.00
2022-07-28T10:01:08.346Z,101729.00
2022-07-28T10:03:39.058Z,101736.00
2022-07-28T10:06:08.554Z,101726.00
2022-07-28T10:08:47.201Z,101727.00
2022-07-28T10:11:14.804Z,101722.00
2022-07-28T10:13:55.372Z,101728.00
2022-07-28T10:16:22.867Z,101722.00
2022-07-28T10:18:49.390Z,101721.00
2022-07-28T10:21:17.135Z,101720.00
2022-07-28T10:23:46.468Z,101727.00
2022-07-28T10:26:13.384Z,101723.00
2022-07-28T10:28:42.507Z,101728.00
2022-07-28T10:31:09.783Z,101721.00
2022-07-28T10:33:39.478Z,101723.00
2022-07-28T10:36:07.909Z,101719.00
2022-07-28T10:38:35.431Z,101715.00
2022-07-28T10:41:03.491Z,101727.00
2022-07-28T10:43:31.931Z,101722.00
2022-07-28T10:46:06.822Z,101720.00
2022-07-28T10:48:35.703Z,101726.00
2022-07-28T10:51:02.328Z,101718.00
2022-07-28T10:54:01.328Z,101720.00
2022-07-28T10:56:38.653Z,101714.00
2022-07-28T10:59:11.526Z,101720.00
2022-07-28T11:01:50.483Z,101716.00
2022-07-28T11:04:40.352Z,101724.00
2022-07-28T11:07:10.865Z,101719.00
2022-07-28T11:09:37.352Z,101715.00
2022-07-28T11:12:04.303Z,101711.00
2022-07-28T11:14:34.049Z,101713.00
2022-07-28T11:17:04.572Z,101712.00
2022-07-28T11:19:36.420Z,101711.00
2022-07-28T11:22:18.352Z,101715.00
2022-07-28T11:24:57.980Z,101711.00
2022-07-28T11:27:40.901Z,101713.00
2022-07-28T11:30:11.597Z,101711.00
2022-07-28T11:32:50.435Z,101714.00
2022-07-28T11:35:17.824Z,101703.00
2022-07-28T11:37:59.673Z,101709.00
2022-07-28T11:40:30.791Z,101712.00
2022-07-28T11:43:16.130Z,101716.00
2022-07-28T11:45:55.620Z,101708.00
2022-07-28T11:48:23.649Z,101711.00
2022-07-28T11:51:07.647Z,101713.00
2022-07-28T11:53:38.323Z,101710.00
2022-07-28T11:56:14.155Z,101711.00
2022-07-28T11:58:41.182Z,101711.00
2022-07-28T12:01:17.105Z,101708.00
2022-07-28T12:03:50.367Z,101720.00
2022-07-28T12:06:28.925Z,101716.00
2022-07-28T12:08:58.206Z,101702.00
2022-07-28T12:11:25.718Z,101708.00
2022-07-28T12:14:01.979Z,101707.00
2022-07-28T12:16:32.529Z,101696.00
2022-07-28T12:19:03.094Z,101696.00
2022-07-28T12:21:35.614Z,101703.00
2022-07-28T12:24:02.148Z,101695.00
2022-07-28T12:26:31.398Z,101695.00
2022-07-28T12:28:59.098Z,101699.00
2022-07-28T12:31:29.656Z,101697.00
2022-07-28T12:33:56.750Z,101693.00
2022-07-28T12:36:26.253Z,101698.00
2022-07-28T12:38:53.320Z,101702.00
2022-07-28T12:41:20.015Z,101701.00
2022-07-28T12:43:53.595Z,101698.00
2022-07-28T12:46:28.250Z,101694.00
2022-07-28T12:48:56.102Z,101687.00
2022-07-28T12:51:32.257Z,101681.00
2022-07-28T12:53:58.854Z,101688.00
2022-07-28T12:56:25.404Z,101692.00
2022-07-28T12:59:08.176Z,101683.00
2022-07-28T13:02:04.637Z,101694.00
2022-07-28T13:04:51.409Z,101693.00
2022-07-28T13:07:20.613Z,101685.00
2022-07-28T13:10:01.045Z,101688.00
2022-07-28T13:12:28.259Z,101676.00
2022-07-28T13:14:56.323Z,101687.00
2022-07-28T13:17:23.889Z,101680.00
2022-07-28T13:19:50.755Z,101680.00
2022-07-28T13:22:27.796Z,101680.00
2022-07-28T13:24:54.622Z,101679.00
2022-07-28T13:27:21.094Z,101673.00
2022-07-28T13:29:50.700Z,101679.00
2022-07-28T13:32:17.421Z,101675.00
2022-07-28T13:34:44.624Z,101670.00
2022-07-28T13:37:11.692Z,101668.00
2022-07-28T13:39:38.632Z,101675.00
2022-07-28T13:42:05.819Z,101674.00
2022-07-28T13:44:33.303Z,101672.00
2022-07-28T13:47:00.096Z,101667.00
2022-07-28T13:49:31.641Z,101670.00
2022-07-28T13:51:58.572Z,101670.00
2022-07-28T13:54:26.995Z,101673.00
2022-07-28T13:56:54.329Z,101675.00
2022-07-28T13:59:21.024Z,101666.00
2022-07-28T14:01:49.951Z,101667.00
2022-07-28T14:04:17.782Z,101667.00
2022-07-28T14:06:47.590Z,101654.00
2022-07-28T14:09:18.572Z,101658.00
2022-07-28T14:11:49.440Z,101661.00
2022-07-28T14:14:20.962Z,101665.00
2022-07-28T14:16:51.590Z,101673.00
2022-07-28T14:19:23.555Z,101662.00
2022-07-28T14:22:10.441Z,101660.00
2022-07-28T14:24:39.581Z,101657.00
2022-07-28T14:27:06.004Z,101653.00
2022-07-28T14:29:34.642Z,101655.00
2022-07-28T14:32:01.146Z,101655.00
2022-07-28T14:34:27.613Z,101654.00
2022-07-28T14:36:56.349Z,101655.00
2022-07-28T14:39:22.947Z,101658.00
2022-07-28T14:41:50.651Z,101651.00
2022-07-28T14:44:23.915Z,101647.00
2022-07-28T14:46:51.309Z,101646.00
2022-07-28T14:49:17.912Z,101644.00
2022-07-28T14:51:47.271Z,101646.00
2022-07-28T14:54:16.628Z,101645.00
2022-07-28T14:56:43.229Z,101660.00
2022-07-28T14:59:09.719Z,101656.00
2022-07-28T15:01:36.473Z,101651.00
2022-07-28T15:04:03.578Z,101651.00
2022-07-28T15:06:30.025Z,101650.00
2022-07-28T15:08:57.829Z,101655.00
2022-07-28T15:11:24.370Z,101656.00
2022-07-28T15:13:50.938Z,101653.00
2022-07-28T15:16:17.469Z,101640.00
2022-07-28T15:18:44.805Z,101650.00
2022-07-28T15:21:17.380Z,101658.00
2022-07-28T15:23:44.250Z,101657.00
2022-07-28T15:26:10.803Z,101645.00
2022-07-28T15:28:37.346Z,101647.00
2022-07-28T15:31:04.025Z,101640.00
2022-07-28T15:33:35.557Z,101649.00
2022-07-28T15:36:02.028Z,101653.00
2022-07-28T15:38:29.170Z,101650.00
2022-07-28T15:40:58.883Z,101648.00
2022-07-28T15:43:25.419Z,101654.00
2022-07-28T15:45:54.301Z,101659.00
2022-07-28T15:48:22.456Z,101654.00
2022-07-28T15:50:49.000Z,101656.00
2022-07-28T15:53:16.235Z,101658.00
2022-07-28T15:55:46.249Z,101659.00
2022-07-28T15:58:15.506Z,101656.00
2022-07-28T16:00:44.431Z,101656.00
2022-07-28T16:03:11.538Z,101661.00
2022-07-28T16:05:38.150Z,101656.00
2022-07-28T16:08:04.775Z,101662.00
2022-07-28T16:10:31.286Z,101661.00
2022-07-28T16:12:57.820Z,101665.00
2022-07-28T16:15:27.586Z,101665.00
2022-07-28T16:17:54.722Z,101662.00
2022-07-28T16:20:21.634Z,101659.00
2022-07-28T16:22:48.154Z,101674.00
2022-07-28T16:25:19.838Z,101675.00
2022-07-28T16:27:47.516Z,101658.00
2022-07-28T16:30:14.452Z,101662.00
2022-07-28T16:32:40.927Z,101655.00
2022-07-28T16:35:07.833Z,101654.00
2022-07-28T16:37:35.573Z,101652.00
2022-07-28T16:40:05.023Z,101657.00
2022-07-28T16:42:31.763Z,101655.00
2022-07-28T16:44:58.245Z,101653.00
2022-07-28T16:47:24.708Z,101652.00
2022-07-28T16:49:51.168Z,101649.00
2022-07-28T16:52:17.698Z,101657.00
2022-07-28T16:54:44.144Z,101654.00
2022-07-28T16:57:12.280Z,101654.00
2022-07-28T16:59:48.653Z,101649.00
2022-07-28T17:02:15.915Z,101648.00
2022-07-28T17:04:42.487Z,101645.00
2022-07-28T17:07:09.038Z,101645.00
2022-07-28T17:09:35.483Z,101640.00
2022-07-28T17:12:01.965Z,101641.00
2022-07-28T17:14:28.489Z,101653.00
2022-07-28T17:16:55.101Z,101653.00
2022-07-28T17:19:22.231Z,101655.00
2022-07-28T17:21:48.808Z,101650.00
2022-07-28T17:24:15.977Z,101648.00
2022-07-28T17:27:35.357Z,101650.00
2022-07-28T17:29:29.626Z,101651.00
2022-07-28T17:31:56.116Z,101643.00
2022-07-28T17:34:22.635Z,101654.00
2022-07-28T17:36:50.392Z,101658.00
2022-07-28T17:39:16.869Z,101662.00
2022-07-28T17:41:43.309Z,101663.00
2022-07-28T17:44:09.796Z,101669.00
2022-07-28T17:46:36.316Z,101664.00
2022-07-28T17:49:03.304Z,101654.00
2022-07-28T17:51:30.768Z,101659.00
2022-07-28T17:53:57.588Z,101664.00
2022-07-28T17:56:24.765Z,101656.00
2022-07-28T17:58:52.414Z,101660.00
2022-07-28T18:01:19.044Z,101665.00
2022-07-28T18:03:58.203Z,101660.00
2022-07-28T18:06:30.364Z,101663.00
2022-07-28T18:08:57.692Z,101663.00
2022-07-28T18:11:31.219Z,101670.00
2022-07-28T18:14:04.309Z,101669.00
2022-07-28T18:16:32.175Z,101669.00
2022-07-28T18:18:58.672Z,101671.00
2022-07-28T18:21:26.566Z,101669.00
2022-07-28T18:23:54.968Z,101669.00
2022-07-28T18:26:22.113Z,101670.00
2022-07-28T18:28:48.845Z,101673.00
2022-07-28T18:31:15.406Z,101671.00
2022-07-28T18:33:42.004Z,101676.00
2022-07-28T18:36:08.511Z,101676.00
2022-07-28T18:38:34.946Z,101680.00
2022-07-28T18:41:01.542Z,101679.00
2022-07-28T18:43:27.986Z,101677.00
2022-07-28T18:45:54.607Z,101687.00
2022-07-28T18:48:21.153Z,101681.00
2022-07-28T18:50:47.862Z,101681.00
2022-07-28T18:53:14.327Z,101686.00
2022-07-28T18:55:40.808Z,101683.00
2022-07-28T18:58:07.426Z,101681.00
2022-07-28T19:00:33.881Z,101674.00
2022-07-28T19:03:01.573Z,101682.00
2022-07-28T19:05:28.187Z,101682.00
2022-07-28T19:08:04.790Z,101682.00
2022-07-28T19:10:32.265Z,101688.00
2022-07-28T19:12:58.761Z,101690.00
2022-07-28T19:15:25.342Z,101685.00
2022-07-28T19:18:10.536Z,101691.00
2022-07-28T19:20:44.043Z,101687.00
2022-07-28T19:23:10.506Z,101690.00
2022-07-28T19:25:38.356Z,101700.00
2022-07-28T19:28:05.062Z,101693.00
2022-07-28T19:30:32.306Z,101700.00
2022-07-28T19:32:59.057Z,101693.00
2022-07-28T19:35:25.599Z,101700.00
2022-07-28T19:37:52.052Z,101695.00
2022-07-28T19:40:18.842Z,101702.00
2022-07-28T19:42:47.053Z,101696.00
2022-07-28T19:45:13.559Z,101697.00
2022-07-28T19:47:39.998Z,101692.00
2022-07-28T19:50:06.568Z,101695.00
2022-07-28T19:52:35.216Z,101696.00
2022-07-28T19:55:04.335Z,101705.00
2022-07-28T19:57:31.857Z,101702.00
2022-07-28T19:59:59.145Z,101702.00
2022-07-28T20:02:25.686Z,101709.00
2022-07-28T20:04:55.137Z,101707.00
2022-07-28T20:07:23.231Z,101713.00
2022-07-28T20:09:58.517Z,101710.00
2022-07-28T20:12:25.069Z,101702.00
2022-07-28T20:14:51.769Z,101709.00
2022-07-28T20:17:35.929Z,101712.00
2022-07-28T20:20:04.197Z,101706.00
2022-07-28T20:22:30.635Z,101702.00
2022-07-28T20:24:57.108Z,101710.00
2022-07-28T20:27:23.644Z,101711.00
2022-07-28T20:29:50.122Z,101705.00
2022-07-28T20:32:16.567Z,101709.00
2022-07-28T20:34:43.001Z,101709.00
2022-07-28T20:37:27.944Z,101722.00
2022-07-28T20:39:56.227Z,101716.00
2022-07-28T20:42:23.043Z,101721.00
2022-07-28T20:44:49.533Z,101722.00
2022-07-28T20:47:15.987Z,101726.00
2022-07-28T20:49:43.391Z,101726.00
2022-07-28T20:52:10.273Z,101730.00
2022-07-28T20:54:36.777Z,101728.00
2022-07-28T20:57:03.271Z,101734.00
2022-07-28T20:59:29.739Z,101730.00
2022-07-28T21:01:56.380Z,101741.00
2022-07-28T21:04:24.548Z,101740.00
2022-07-28T21:06:52.701Z,101738.00
2022-07-28T21:09:21.896Z,101739.00
2022-07-28T21:11:48.388Z,101745.00
2022-07-28T21:14:15.077Z,101739.00
2022-07-28T21:16:41.940Z,101741.00
2022-07-28T21:19:08.798Z,101737.00
2022-07-28T21:21:35.523Z,101745.00
2022-07-28T21:24:01.965Z,101738.00
2022-07-28T21:26:28.476Z,101741.00
2022-07-28T21:32:02.315Z,101739.00
2022-07-28T21:34:31.519Z,101743.00
2022-07-28T21:37:00.397Z,101745.00
2022-07-28T21:39:26.846Z,101738.00
2022-07-28T21:41:53.375Z,101737.00
2022-07-28T21:44:20.110Z,101733.00
2022-07-28T21:46:46.593Z,101738.00
2022-07-28T21:49:13.213Z,101742.00
2022-07-28T21:51:40.020Z,101734.00
2022-07-28T21:54:06.527Z,101742.00
2022-07-28T21:56:34.523Z,101739.00
2022-07-28T21:59:01.633Z,101747.00
2022-07-28T22:01:28.536Z,101745.00
2022-07-28T22:03:55.390Z,101744.00
2022-07-28T22:06:22.050Z,101749.00
2022-07-28T22:08:53.383Z,101751.00
2022-07-28T22:11:21.226Z,101752.00
2022-07-28T22:13:47.758Z,101743.00
2022-07-28T22:16:14.390Z,101747.00
2022-07-28T22:18:40.843Z,101751.00
2022-07-28T22:21:07.343Z,101756.00
2022-07-28T22:23:33.798Z,101750.00
2022-07-28T22:26:00.309Z,101758.00
2022-07-28T22:28:30.043Z,101749.00
2022-07-28T22:30:57.318Z,101757.00
2022-07-28T22:33:23.746Z,101750.00
2022-07-28T22:35:51.368Z,101750.00
2022-07-28T22:38:17.924Z,101751.00
2022-07-28T22:40:44.431Z,101751.00
2022-07-28T22:43:10.900Z,101755.00
2022-07-28T22:45:50.048Z,101753.00
2022-07-28T22:48:18.088Z,101754.00
2022-07-28T22:50:44.611Z,101751.00
2022-07-28T22:53:11.132Z,101748.00
2022-07-28T22:58:21.479Z,101749.00
2022-07-28T23:00:49.127Z,101740.00
2022-07-28T23:03:17.898Z,101740.00
2022-07-28T23:05:44.812Z,101735.00
2022-07-28T23:08:11.568Z,101739.00
2022-07-28T23:10:41.692Z,101746.00
2022-07-28T23:13:08.233Z,101742.00
2022-07-28T23:15:40.394Z,101748.00
2022-07-28T23:18:08.445Z,101739.00
2022-07-28T23:20:35.009Z,101743.00
2022-07-28T23:23:01.542Z,101738.00
2022-07-28T23:25:28.743Z,101735.00
2022-07-28T23:27:55.473Z,101736.00
2022-07-28T23:30:21.953Z,101740.00
2022-07-28T23:32:52.557Z,101728.00
2022-07-28T23:35:19.319Z,101728.00
2022-07-28T23:37:45.847Z,101731.00
2022-07-28T23:40:12.572Z,101729.00
2022-07-28T23:42:39.120Z,101733.00
2022-07-28T23:45:05.834Z,101743.00
2022-07-28T23:47:34.365Z,101735.00
2022-07-28T23:50:01.243Z,101734.00
2022-07-28T23:52:27.959Z,101732.00
2022-07-28T23:54:54.460Z,101726.00
2022-07-28T23:57:21.070Z,101728.00
2022-07-28T23:59:47.569Z,101726.00
